sensor_id;sensor_type;location;lat;lon;timestamp;P1;durP1;ratioP1;P2;durP2;ratioP2
73454;SDS011;61690;51.824;6.306;2022-12-18T00:01:56;18.77;;;15.33;;
73454;SDS011;61690;51.824;6.306;2022-12-18T00:04:24;18.55;;;15.70;;
73454;SDS011;61690;51.824;6.306;2022-12-18T00:06:50;17.90;;;15.00;;
73454;SDS011;61690;51.824;6.306;2022-12-18T00:09:16;17.15;;;14.45;;
73454;SDS011;61690;51.824;6.306;2022-12-18T00:11:41;17.63;;;15.33;;
73454;SDS011;61690;51.824;6.306;2022-12-18T00:14:07;18.17;;;15.02;;
73454;SDS011;61690;51.824;6.306;2022-12-18T00:16:33;19.53;;;15.10;;
73454;SDS011;61690;51.824;6.306;2022-12-18T00:19:01;17.90;;;13.82;;
73454;SDS011;61690;51.824;6.306;2022-12-18T00:21:28;19.27;;;14.75;;
73454;SDS011;61690;51.824;6.306;2022-12-18T00:23:54;18.60;;;14.88;;
73454;SDS011;61690;51.824;6.306;2022-12-18T00:26:21;19.30;;;14.00;;
73454;SDS011;61690;51.824;6.306;2022-12-18T00:28:49;18.83;;;15.20;;
73454;SDS011;61690;51.824;6.306;2022-12-18T00:31:17;18.35;;;13.95;;
73454;SDS011;61690;51.824;6.306;2022-12-18T00:33:44;17.38;;;13.90;;
73454;SDS011;61690;51.824;6.306;2022-12-18T00:36:11;17.43;;;14.80;;
73454;SDS011;61690;51.824;6.306;2022-12-18T00:38:44;18.02;;;14.27;;
73454;SDS011;61690;51.824;6.306;2022-12-18T00:41:11;18.20;;;14.23;;
73454;SDS011;61690;51.824;6.306;2022-12-18T00:43:37;16.98;;;14.45;;
73454;SDS011;61690;51.824;6.306;2022-12-18T00:46:03;18.13;;;14.70;;
73454;SDS011;61690;51.824;6.306;2022-12-18T00:48:29;18.67;;;14.93;;
73454;SDS011;61690;51.824;6.306;2022-12-18T00:53:48;18.13;;;14.20;;
73454;SDS011;61690;51.824;6.306;2022-12-18T00:56:14;17.90;;;13.73;;
73454;SDS011;61690;51.824;6.306;2022-12-18T00:58:39;19.67;;;14.87;;
73454;SDS011;61690;51.824;6.306;2022-12-18T01:01:05;19.10;;;14.47;;
73454;SDS011;61690;51.824;6.306;2022-12-18T01:03:30;18.13;;;14.25;;
73454;SDS011;61690;51.824;6.306;2022-12-18T01:05:56;17.47;;;14.07;;
73454;SDS011;61690;51.824;6.306;2022-12-18T01:08:21;19.80;;;14.20;;
73454;SDS011;61690;51.824;6.306;2022-12-18T01:10:46;18.60;;;14.00;;
73454;SDS011;61690;51.824;6.306;2022-12-18T01:13:12;18.57;;;14.17;;
73454;SDS011;61690;51.824;6.306;2022-12-18T01:15:37;17.90;;;14.03;;
73454;SDS011;61690;51.824;6.306;2022-12-18T01:18:02;17.90;;;13.30;;
73454;SDS011;61690;51.824;6.306;2022-12-18T01:20:31;17.83;;;13.00;;
73454;SDS011;61690;51.824;6.306;2022-12-18T01:22:57;17.73;;;14.10;;
73454;SDS011;61690;51.824;6.306;2022-12-18T01:25:22;17.17;;;12.97;;
73454;SDS011;61690;51.824;6.306;2022-12-18T01:27:47;18.40;;;13.40;;
73454;SDS011;61690;51.824;6.306;2022-12-18T01:30:13;17.07;;;12.80;;
73454;SDS011;61690;51.824;6.306;2022-12-18T01:32:38;18.13;;;14.20;;
73454;SDS011;61690;51.824;6.306;2022-12-18T01:35:04;18.85;;;14.35;;
73454;SDS011;61690;51.824;6.306;2022-12-18T01:37:30;18.33;;;14.03;;
73454;SDS011;61690;51.824;6.306;2022-12-18T01:39:56;17.33;;;13.18;;
73454;SDS011;61690;51.824;6.306;2022-12-18T01:42:21;16.47;;;13.07;;
73454;SDS011;61690;51.824;6.306;2022-12-18T01:50:06;17.63;;;13.65;;
73454;SDS011;61690;51.824;6.306;2022-12-18T01:52:36;18.65;;;13.40;;
73454;SDS011;61690;51.824;6.306;2022-12-18T01:55:04;17.95;;;12.85;;
73454;SDS011;61690;51.824;6.306;2022-12-18T01:57:34;17.67;;;13.20;;
73454;SDS011;61690;51.824;6.306;2022-12-18T02:00:12;17.55;;;12.85;;
73454;SDS011;61690;51.824;6.306;2022-12-18T02:02:40;16.80;;;12.75;;
73454;SDS011;61690;51.824;6.306;2022-12-18T02:05:07;18.00;;;12.88;;
73454;SDS011;61690;51.824;6.306;2022-12-18T02:10:45;17.43;;;12.80;;
73454;SDS011;61690;51.824;6.306;2022-12-18T02:13:14;18.15;;;13.02;;
73454;SDS011;61690;51.824;6.306;2022-12-18T02:15:45;19.70;;;13.30;;
73454;SDS011;61690;51.824;6.306;2022-12-18T02:18:21;18.80;;;13.07;;
73454;SDS011;61690;51.824;6.306;2022-12-18T02:23:47;18.60;;;13.50;;
73454;SDS011;61690;51.824;6.306;2022-12-18T02:26:20;17.10;;;12.50;;
73454;SDS011;61690;51.824;6.306;2022-12-18T02:29:12;17.48;;;13.10;;
73454;SDS011;61690;51.824;6.306;2022-12-18T02:31:43;16.75;;;13.05;;
73454;SDS011;61690;51.824;6.306;2022-12-18T02:34:13;17.10;;;12.77;;
73454;SDS011;61690;51.824;6.306;2022-12-18T02:36:41;16.93;;;12.73;;
73454;SDS011;61690;51.824;6.306;2022-12-18T02:39:09;16.88;;;12.98;;
73454;SDS011;61690;51.824;6.306;2022-12-18T02:41:36;16.45;;;12.18;;
73454;SDS011;61690;51.824;6.306;2022-12-18T02:44:07;17.02;;;12.55;;
73454;SDS011;61690;51.824;6.306;2022-12-18T02:46:36;16.85;;;12.90;;
73454;SDS011;61690;51.824;6.306;2022-12-18T02:56:50;15.65;;;11.57;;
73454;SDS011;61690;51.824;6.306;2022-12-18T02:59:19;16.63;;;11.63;;
73454;SDS011;61690;51.824;6.306;2022-12-18T03:04:42;16.05;;;12.20;;
73454;SDS011;61690;51.824;6.306;2022-12-18T03:07:23;16.80;;;11.80;;
73454;SDS011;61690;51.824;6.306;2022-12-18T03:09:58;17.45;;;12.20;;
73454;SDS011;61690;51.824;6.306;2022-12-18T03:12:29;17.63;;;12.52;;
73454;SDS011;61690;51.824;6.306;2022-12-18T03:18:49;16.35;;;12.05;;
73454;SDS011;61690;51.824;6.306;2022-12-18T03:21:02;16.23;;;11.43;;
73454;SDS011;61690;51.824;6.306;2022-12-18T03:23:32;16.50;;;12.32;;
73454;SDS011;61690;51.824;6.306;2022-12-18T03:26:03;16.23;;;12.02;;
73454;SDS011;61690;51.824;6.306;2022-12-18T03:28:33;16.43;;;11.80;;
73454;SDS011;61690;51.824;6.306;2022-12-18T03:31:02;16.42;;;11.80;;
73454;SDS011;61690;51.824;6.306;2022-12-18T03:33:31;17.45;;;12.38;;
73454;SDS011;61690;51.824;6.306;2022-12-18T03:36:02;16.77;;;11.55;;
73454;SDS011;61690;51.824;6.306;2022-12-18T03:38:28;15.53;;;11.50;;
73454;SDS011;61690;51.824;6.306;2022-12-18T03:43:47;17.37;;;11.93;;
73454;SDS011;61690;51.824;6.306;2022-12-18T03:47:01;16.50;;;11.23;;
73454;SDS011;61690;51.824;6.306;2022-12-18T03:49:10;15.35;;;11.60;;
73454;SDS011;61690;51.824;6.306;2022-12-18T03:51:42;15.02;;;11.05;;
73454;SDS011;61690;51.824;6.306;2022-12-18T03:54:18;16.27;;;11.55;;
73454;SDS011;61690;51.824;6.306;2022-12-18T03:56:50;17.33;;;11.43;;
73454;SDS011;61690;51.824;6.306;2022-12-18T03:59:22;14.35;;;10.75;;
73454;SDS011;61690;51.824;6.306;2022-12-18T04:01:49;15.80;;;10.93;;
73454;SDS011;61690;51.824;6.306;2022-12-18T04:04:17;15.70;;;10.95;;
73454;SDS011;61690;51.824;6.306;2022-12-18T04:06:44;17.33;;;11.30;;
73454;SDS011;61690;51.824;6.306;2022-12-18T04:09:12;15.23;;;11.00;;
73454;SDS011;61690;51.824;6.306;2022-12-18T04:11:39;15.30;;;11.15;;
73454;SDS011;61690;51.824;6.306;2022-12-18T04:14:10;14.18;;;10.88;;
73454;SDS011;61690;51.824;6.306;2022-12-18T04:16:36;15.30;;;11.30;;
73454;SDS011;61690;51.824;6.306;2022-12-18T04:19:01;15.73;;;10.73;;
73454;SDS011;61690;51.824;6.306;2022-12-18T04:21:26;15.98;;;11.27;;
73454;SDS011;61690;51.824;6.306;2022-12-18T04:23:52;15.20;;;11.23;;
73454;SDS011;61690;51.824;6.306;2022-12-18T04:26:17;14.80;;;10.73;;
73454;SDS011;61690;51.824;6.306;2022-12-18T04:28:42;14.57;;;10.57;;
73454;SDS011;61690;51.824;6.306;2022-12-18T04:31:08;14.47;;;10.50;;
73454;SDS011;61690;51.824;6.306;2022-12-18T04:33:33;15.83;;;10.87;;
73454;SDS011;61690;51.824;6.306;2022-12-18T04:35:58;15.30;;;11.43;;
73454;SDS011;61690;51.824;6.306;2022-12-18T04:38:24;14.80;;;10.30;;
73454;SDS011;61690;51.824;6.306;2022-12-18T04:40:49;15.07;;;10.70;;
73454;SDS011;61690;51.824;6.306;2022-12-18T04:43:14;14.33;;;10.40;;
73454;SDS011;61690;51.824;6.306;2022-12-18T04:45:40;14.67;;;10.57;;
73454;SDS011;61690;51.824;6.306;2022-12-18T04:48:05;14.20;;;10.40;;
73454;SDS011;61690;51.824;6.306;2022-12-18T04:50:30;15.10;;;10.60;;
73454;SDS011;61690;51.824;6.306;2022-12-18T04:52:56;16.05;;;10.10;;
73454;SDS011;61690;51.824;6.306;2022-12-18T04:55:22;14.93;;;10.50;;
73454;SDS011;61690;51.824;6.306;2022-12-18T04:57:50;13.48;;;9.68;;
73454;SDS011;61690;51.824;6.306;2022-12-18T05:00:15;14.80;;;9.90;;
73454;SDS011;61690;51.824;6.306;2022-12-18T05:02:41;14.45;;;10.20;;
73454;SDS011;61690;51.824;6.306;2022-12-18T05:05:07;13.53;;;9.33;;
73454;SDS011;61690;51.824;6.306;2022-12-18T05:07:36;14.13;;;9.27;;
73454;SDS011;61690;51.824;6.306;2022-12-18T05:10:01;13.77;;;9.10;;
73454;SDS011;61690;51.824;6.306;2022-12-18T05:12:27;13.57;;;9.73;;
73454;SDS011;61690;51.824;6.306;2022-12-18T05:14:52;13.60;;;9.93;;
73454;SDS011;61690;51.824;6.306;2022-12-18T05:17:18;14.10;;;9.50;;
73454;SDS011;61690;51.824;6.306;2022-12-18T05:19:43;13.73;;;9.90;;
73454;SDS011;61690;51.824;6.306;2022-12-18T05:22:08;12.97;;;9.03;;
73454;SDS011;61690;51.824;6.306;2022-12-18T05:24:34;13.70;;;9.43;;
73454;SDS011;61690;51.824;6.306;2022-12-18T05:26:59;13.70;;;9.33;;
73454;SDS011;61690;51.824;6.306;2022-12-18T05:29:25;13.47;;;9.53;;
73454;SDS011;61690;51.824;6.306;2022-12-18T05:31:51;12.47;;;9.23;;
73454;SDS011;61690;51.824;6.306;2022-12-18T05:34:16;12.95;;;8.90;;
73454;SDS011;61690;51.824;6.306;2022-12-18T05:36:41;14.10;;;9.63;;
73454;SDS011;61690;51.824;6.306;2022-12-18T05:39:07;14.83;;;9.83;;
73454;SDS011;61690;51.824;6.306;2022-12-18T05:41:32;14.77;;;9.37;;
73454;SDS011;61690;51.824;6.306;2022-12-18T05:43:58;13.37;;;9.07;;
73454;SDS011;61690;51.824;6.306;2022-12-18T05:46:23;12.30;;;8.70;;
73454;SDS011;61690;51.824;6.306;2022-12-18T05:48:49;13.10;;;9.17;;
73454;SDS011;61690;51.824;6.306;2022-12-18T05:51:16;13.55;;;8.68;;
73454;SDS011;61690;51.824;6.306;2022-12-18T05:53:43;13.70;;;9.30;;
73454;SDS011;61690;51.824;6.306;2022-12-18T05:56:10;14.27;;;9.47;;
73454;SDS011;61690;51.824;6.306;2022-12-18T05:58:38;13.27;;;8.80;;
73454;SDS011;61690;51.824;6.306;2022-12-18T06:01:11;12.40;;;8.70;;
73454;SDS011;61690;51.824;6.306;2022-12-18T06:03:39;12.43;;;9.00;;
73454;SDS011;61690;51.824;6.306;2022-12-18T06:06:12;11.93;;;8.67;;
73454;SDS011;61690;51.824;6.306;2022-12-18T06:08:41;13.13;;;8.45;;
73454;SDS011;61690;51.824;6.306;2022-12-18T06:11:07;13.67;;;8.60;;
73454;SDS011;61690;51.824;6.306;2022-12-18T06:13:32;12.27;;;9.10;;
73454;SDS011;61690;51.824;6.306;2022-12-18T06:15:57;11.67;;;8.20;;
73454;SDS011;61690;51.824;6.306;2022-12-18T06:18:22;12.10;;;8.43;;
73454;SDS011;61690;51.824;6.306;2022-12-18T06:20:55;12.27;;;8.57;;
73454;SDS011;61690;51.824;6.306;2022-12-18T06:23:21;13.07;;;8.15;;
73454;SDS011;61690;51.824;6.306;2022-12-18T06:25:46;12.50;;;8.27;;
73454;SDS011;61690;51.824;6.306;2022-12-18T06:28:11;12.37;;;8.33;;
73454;SDS011;61690;51.824;6.306;2022-12-18T06:30:37;11.77;;;8.20;;
73454;SDS011;61690;51.824;6.306;2022-12-18T06:33:02;12.30;;;8.80;;
73454;SDS011;61690;51.824;6.306;2022-12-18T06:35:27;11.70;;;8.10;;
73454;SDS011;61690;51.824;6.306;2022-12-18T06:37:53;12.87;;;8.57;;
73454;SDS011;61690;51.824;6.306;2022-12-18T06:40:18;11.73;;;8.53;;
73454;SDS011;61690;51.824;6.306;2022-12-18T06:42:43;12.38;;;8.00;;
73454;SDS011;61690;51.824;6.306;2022-12-18T06:45:09;11.90;;;7.93;;
73454;SDS011;61690;51.824;6.306;2022-12-18T06:47:34;10.87;;;7.67;;
73454;SDS011;61690;51.824;6.306;2022-12-18T06:50:00;11.65;;;7.70;;
73454;SDS011;61690;51.824;6.306;2022-12-18T06:52:25;12.10;;;8.10;;
73454;SDS011;61690;51.824;6.306;2022-12-18T06:54:50;11.93;;;7.47;;
73454;SDS011;61690;51.824;6.306;2022-12-18T06:57:15;13.13;;;8.10;;
73454;SDS011;61690;51.824;6.306;2022-12-18T06:59:41;11.50;;;7.20;;
73454;SDS011;61690;51.824;6.306;2022-12-18T07:02:06;11.47;;;7.70;;
73454;SDS011;61690;51.824;6.306;2022-12-18T07:04:35;11.07;;;6.90;;
73454;SDS011;61690;51.824;6.306;2022-12-18T07:07:00;12.00;;;7.43;;
73454;SDS011;61690;51.824;6.306;2022-12-18T07:09:26;11.10;;;7.40;;
73454;SDS011;61690;51.824;6.306;2022-12-18T07:11:51;10.73;;;7.10;;
73454;SDS011;61690;51.824;6.306;2022-12-18T07:14:16;10.90;;;7.20;;
73454;SDS011;61690;51.824;6.306;2022-12-18T07:16:42;10.10;;;7.20;;
73454;SDS011;61690;51.824;6.306;2022-12-18T07:19:07;11.23;;;7.38;;
73454;SDS011;61690;51.824;6.306;2022-12-18T07:21:32;11.20;;;7.13;;
73454;SDS011;61690;51.824;6.306;2022-12-18T07:23:57;10.40;;;6.87;;
73454;SDS011;61690;51.824;6.306;2022-12-18T07:26:23;11.30;;;7.37;;
73454;SDS011;61690;51.824;6.306;2022-12-18T07:28:48;10.23;;;6.57;;
73454;SDS011;61690;51.824;6.306;2022-12-18T07:31:16;10.10;;;6.82;;
73454;SDS011;61690;51.824;6.306;2022-12-18T07:33:44;10.80;;;6.88;;
73454;SDS011;61690;51.824;6.306;2022-12-18T07:36:10;10.52;;;6.57;;
73454;SDS011;61690;51.824;6.306;2022-12-18T07:38:35;10.17;;;7.00;;
73454;SDS011;61690;51.824;6.306;2022-12-18T07:41:02;10.07;;;6.80;;
73454;SDS011;61690;51.824;6.306;2022-12-18T07:43:29;11.05;;;7.32;;
73454;SDS011;61690;51.824;6.306;2022-12-18T07:45:54;10.70;;;6.83;;
73454;SDS011;61690;51.824;6.306;2022-12-18T07:48:19;10.63;;;7.23;;
73454;SDS011;61690;51.824;6.306;2022-12-18T07:50:45;10.60;;;7.30;;
73454;SDS011;61690;51.824;6.306;2022-12-18T07:53:10;10.33;;;6.90;;
73454;SDS011;61690;51.824;6.306;2022-12-18T07:55:36;10.43;;;6.60;;
73454;SDS011;61690;51.824;6.306;2022-12-18T07:58:02;10.20;;;7.00;;
73454;SDS011;61690;51.824;6.306;2022-12-18T08:00:29;10.80;;;6.50;;
73454;SDS011;61690;51.824;6.306;2022-12-18T08:02:54;10.38;;;6.50;;
73454;SDS011;61690;51.824;6.306;2022-12-18T08:05:20;9.70;;;6.50;;
73454;SDS011;61690;51.824;6.306;2022-12-18T08:07:45;10.40;;;6.30;;
73454;SDS011;61690;51.824;6.306;2022-12-18T08:10:11;9.65;;;6.25;;
73454;SDS011;61690;51.824;6.306;2022-12-18T08:12:36;10.00;;;6.60;;
73454;SDS011;61690;51.824;6.306;2022-12-18T08:15:01;9.57;;;5.80;;
73454;SDS011;61690;51.824;6.306;2022-12-18T08:17:27;10.27;;;6.30;;
73454;SDS011;61690;51.824;6.306;2022-12-18T08:19:52;9.70;;;6.30;;
73454;SDS011;61690;51.824;6.306;2022-12-18T08:22:17;10.93;;;6.60;;
73454;SDS011;61690;51.824;6.306;2022-12-18T08:24:43;10.25;;;6.63;;
73454;SDS011;61690;51.824;6.306;2022-12-18T08:27:08;9.97;;;6.20;;
73454;SDS011;61690;51.824;6.306;2022-12-18T08:29:33;9.07;;;5.80;;
73454;SDS011;61690;51.824;6.306;2022-12-18T08:31:59;9.90;;;6.00;;
73454;SDS011;61690;51.824;6.306;2022-12-18T08:34:24;9.13;;;5.93;;
73454;SDS011;61690;51.824;6.306;2022-12-18T08:36:49;9.70;;;6.20;;
73454;SDS011;61690;51.824;6.306;2022-12-18T08:39:15;9.57;;;6.43;;
73454;SDS011;61690;51.824;6.306;2022-12-18T08:41:40;10.23;;;6.30;;
73454;SDS011;61690;51.824;6.306;2022-12-18T08:44:07;9.50;;;6.03;;
73454;SDS011;61690;51.824;6.306;2022-12-18T08:46:50;10.27;;;6.60;;
73454;SDS011;61690;51.824;6.306;2022-12-18T08:49:16;10.30;;;6.10;;
73454;SDS011;61690;51.824;6.306;2022-12-18T08:51:41;10.80;;;6.50;;
73454;SDS011;61690;51.824;6.306;2022-12-18T08:54:06;9.57;;;6.37;;
73454;SDS011;61690;51.824;6.306;2022-12-18T08:56:32;8.93;;;6.20;;
73454;SDS011;61690;51.824;6.306;2022-12-18T08:58:58;9.80;;;6.65;;
73454;SDS011;61690;51.824;6.306;2022-12-18T09:01:23;10.93;;;6.33;;
73454;SDS011;61690;51.824;6.306;2022-12-18T09:03:50;11.15;;;7.20;;
73454;SDS011;61690;51.824;6.306;2022-12-18T09:06:16;9.80;;;6.50;;
73454;SDS011;61690;51.824;6.306;2022-12-18T09:08:46;10.75;;;6.60;;
73454;SDS011;61690;51.824;6.306;2022-12-18T09:11:24;10.70;;;6.85;;
73454;SDS011;61690;51.824;6.306;2022-12-18T09:13:51;9.27;;;6.15;;
73454;SDS011;61690;51.824;6.306;2022-12-18T09:16:17;11.73;;;7.10;;
73454;SDS011;61690;51.824;6.306;2022-12-18T09:18:43;12.05;;;7.68;;
73454;SDS011;61690;51.824;6.306;2022-12-18T09:21:09;10.80;;;7.13;;
73454;SDS011;61690;51.824;6.306;2022-12-18T09:23:36;11.45;;;7.47;;
73454;SDS011;61690;51.824;6.306;2022-12-18T09:26:01;11.30;;;8.03;;
73454;SDS011;61690;51.824;6.306;2022-12-18T09:28:27;11.40;;;7.23;;
73454;SDS011;61690;51.824;6.306;2022-12-18T09:30:52;11.30;;;7.97;;
73454;SDS011;61690;51.824;6.306;2022-12-18T09:33:17;11.67;;;7.93;;
73454;SDS011;61690;51.824;6.306;2022-12-18T09:35:43;12.27;;;8.70;;
73454;SDS011;61690;51.824;6.306;2022-12-18T09:38:15;12.20;;;8.85;;
73454;SDS011;61690;51.824;6.306;2022-12-18T09:40:43;13.00;;;9.70;;
73454;SDS011;61690;51.824;6.306;2022-12-18T09:43:58;12.87;;;8.67;;
73454;SDS011;61690;51.824;6.306;2022-12-18T09:46:01;13.55;;;8.27;;
73454;SDS011;61690;51.824;6.306;2022-12-18T09:48:31;12.30;;;8.77;;
73454;SDS011;61690;51.824;6.306;2022-12-18T09:51:19;13.77;;;9.05;;
73454;SDS011;61690;51.824;6.306;2022-12-18T09:53:51;12.95;;;9.43;;
73454;SDS011;61690;51.824;6.306;2022-12-18T09:56:26;12.80;;;9.93;;
73454;SDS011;61690;51.824;6.306;2022-12-18T09:58:57;15.32;;;10.43;;
73454;SDS011;61690;51.824;6.306;2022-12-18T10:01:24;13.68;;;10.50;;
73454;SDS011;61690;51.824;6.306;2022-12-18T10:03:52;13.68;;;9.98;;
73454;SDS011;61690;51.824;6.306;2022-12-18T10:06:20;15.40;;;9.43;;
73454;SDS011;61690;51.824;6.306;2022-12-18T10:11:40;15.07;;;11.77;;
73454;SDS011;61690;51.824;6.306;2022-12-18T10:22:57;16.93;;;11.33;;
73454;SDS011;61690;51.824;6.306;2022-12-18T10:25:55;14.77;;;11.18;;
73454;SDS011;61690;51.824;6.306;2022-12-18T10:28:26;16.65;;;12.25;;
73454;SDS011;61690;51.824;6.306;2022-12-18T10:30:54;17.60;;;12.52;;
73454;SDS011;61690;51.824;6.306;2022-12-18T10:33:21;16.40;;;12.57;;
73454;SDS011;61690;51.824;6.306;2022-12-18T10:35:49;16.83;;;12.23;;
73454;SDS011;61690;51.824;6.306;2022-12-18T10:44:10;17.87;;;12.83;;
73454;SDS011;61690;51.824;6.306;2022-12-18T10:46:37;17.98;;;12.82;;
73454;SDS011;61690;51.824;6.306;2022-12-18T10:49:03;16.52;;;13.45;;
73454;SDS011;61690;51.824;6.306;2022-12-18T10:51:30;16.77;;;13.17;;
73454;SDS011;61690;51.824;6.306;2022-12-18T10:56:39;18.40;;;13.68;;
73454;SDS011;61690;51.824;6.306;2022-12-18T10:59:06;17.97;;;13.70;;
73454;SDS011;61690;51.824;6.306;2022-12-18T11:01:50;16.75;;;13.45;;
73454;SDS011;61690;51.824;6.306;2022-12-18T11:04:18;20.25;;;13.75;;
73454;SDS011;61690;51.824;6.306;2022-12-18T11:07:07;17.45;;;13.65;;
73454;SDS011;61690;51.824;6.306;2022-12-18T11:09:34;18.88;;;14.50;;
73454;SDS011;61690;51.824;6.306;2022-12-18T11:12:02;16.53;;;13.93;;
73454;SDS011;61690;51.824;6.306;2022-12-18T11:14:32;16.85;;;13.50;;
73454;SDS011;61690;51.824;6.306;2022-12-18T11:17:16;17.38;;;13.73;;
73454;SDS011;61690;51.824;6.306;2022-12-18T11:20:03;18.08;;;13.93;;
73454;SDS011;61690;51.824;6.306;2022-12-18T11:22:58;16.27;;;12.80;;
73454;SDS011;61690;51.824;6.306;2022-12-18T11:25:26;19.13;;;14.53;;
73454;SDS011;61690;51.824;6.306;2022-12-18T11:28:00;17.10;;;13.50;;
73454;SDS011;61690;51.824;6.306;2022-12-18T11:30:36;17.23;;;13.90;;
73454;SDS011;61690;51.824;6.306;2022-12-18T11:35:58;17.35;;;13.57;;
73454;SDS011;61690;51.824;6.306;2022-12-18T11:38:29;19.30;;;13.90;;
73454;SDS011;61690;51.824;6.306;2022-12-18T11:41:11;17.50;;;14.00;;
73454;SDS011;61690;51.824;6.306;2022-12-18T11:44:22;17.42;;;13.43;;
73454;SDS011;61690;51.824;6.306;2022-12-18T11:46:53;16.73;;;13.32;;
73454;SDS011;61690;51.824;6.306;2022-12-18T11:49:26;16.33;;;13.68;;
73454;SDS011;61690;51.824;6.306;2022-12-18T11:52:09;17.47;;;13.40;;
73454;SDS011;61690;51.824;6.306;2022-12-18T11:54:43;17.58;;;13.70;;
73454;SDS011;61690;51.824;6.306;2022-12-18T12:00:02;16.25;;;13.73;;
73454;SDS011;61690;51.824;6.306;2022-12-18T12:03:01;16.88;;;13.70;;
73454;SDS011;61690;51.824;6.306;2022-12-18T12:08:12;17.30;;;13.07;;
73454;SDS011;61690;51.824;6.306;2022-12-18T12:21:21;17.15;;;13.55;;
73454;SDS011;61690;51.824;6.306;2022-12-18T12:23:54;16.17;;;13.23;;
73454;SDS011;61690;51.824;6.306;2022-12-18T12:26:40;16.35;;;13.07;;
73454;SDS011;61690;51.824;6.306;2022-12-18T12:32:22;16.13;;;13.00;;
73454;SDS011;61690;51.824;6.306;2022-12-18T12:40:33;16.33;;;12.68;;
73454;SDS011;61690;51.824;6.306;2022-12-18T12:43:10;15.15;;;13.15;;
73454;SDS011;61690;51.824;6.306;2022-12-18T12:48:16;17.45;;;13.20;;
73454;SDS011;61690;51.824;6.306;2022-12-18T12:50:56;15.87;;;12.50;;
73454;SDS011;61690;51.824;6.306;2022-12-18T12:53:26;17.77;;;12.73;;
73454;SDS011;61690;51.824;6.306;2022-12-18T12:55:55;17.02;;;13.02;;
73454;SDS011;61690;51.824;6.306;2022-12-18T12:58:36;17.30;;;13.05;;
73454;SDS011;61690;51.824;6.306;2022-12-18T13:04:20;14.57;;;12.70;;
73454;SDS011;61690;51.824;6.306;2022-12-18T13:06:52;16.75;;;13.32;;
73454;SDS011;61690;51.824;6.306;2022-12-18T13:09:32;17.35;;;13.13;;
73454;SDS011;61690;51.824;6.306;2022-12-18T13:12:02;16.45;;;13.50;;
73454;SDS011;61690;51.824;6.306;2022-12-18T13:14:48;16.67;;;12.95;;
73454;SDS011;61690;51.824;6.306;2022-12-18T13:17:26;16.70;;;13.20;;
73454;SDS011;61690;51.824;6.306;2022-12-18T13:20:04;16.75;;;13.32;;
73454;SDS011;61690;51.824;6.306;2022-12-18T13:22:33;16.63;;;12.83;;
73454;SDS011;61690;51.824;6.306;2022-12-18T13:24:59;15.50;;;12.75;;
73454;SDS011;61690;51.824;6.306;2022-12-18T13:45:47;14.53;;;11.93;;
73454;SDS011;61690;51.824;6.306;2022-12-18T13:48:18;15.68;;;12.25;;
73454;SDS011;61690;51.824;6.306;2022-12-18T13:50:48;15.80;;;12.90;;
73454;SDS011;61690;51.824;6.306;2022-12-18T13:53:21;16.20;;;12.80;;
73454;SDS011;61690;51.824;6.306;2022-12-18T13:55:50;16.20;;;12.40;;
73454;SDS011;61690;51.824;6.306;2022-12-18T13:58:16;13.60;;;11.43;;
73454;SDS011;61690;51.824;6.306;2022-12-18T14:00:42;15.03;;;12.40;;
73454;SDS011;61690;51.824;6.306;2022-12-18T14:03:24;16.58;;;12.45;;
73454;SDS011;61690;51.824;6.306;2022-12-18T14:06:01;14.27;;;12.02;;
73454;SDS011;61690;51.824;6.306;2022-12-18T14:08:33;14.73;;;12.25;;
73454;SDS011;61690;51.824;6.306;2022-12-18T14:11:02;14.07;;;11.53;;
73454;SDS011;61690;51.824;6.306;2022-12-18T14:13:37;15.40;;;12.13;;
73454;SDS011;61690;51.824;6.306;2022-12-18T14:16:06;14.18;;;11.63;;
73454;SDS011;61690;51.824;6.306;2022-12-18T14:18:42;15.93;;;12.00;;
73454;SDS011;61690;51.824;6.306;2022-12-18T14:21:24;15.48;;;12.10;;
73454;SDS011;61690;51.824;6.306;2022-12-18T14:26:44;14.02;;;11.40;;
73454;SDS011;61690;51.824;6.306;2022-12-18T14:34:34;14.50;;;12.10;;
73454;SDS011;61690;51.824;6.306;2022-12-18T14:37:00;13.75;;;11.18;;
73454;SDS011;61690;51.824;6.306;2022-12-18T14:39:25;13.90;;;11.83;;
73454;SDS011;61690;51.824;6.306;2022-12-18T14:41:51;13.53;;;11.20;;
73454;SDS011;61690;51.824;6.306;2022-12-18T14:44:16;13.18;;;11.15;;
73454;SDS011;61690;51.824;6.306;2022-12-18T14:46:42;16.33;;;11.53;;
73454;SDS011;61690;51.824;6.306;2022-12-18T14:52:17;15.07;;;11.50;;
73454;SDS011;61690;51.824;6.306;2022-12-18T14:54:57;14.33;;;11.57;;
73454;SDS011;61690;51.824;6.306;2022-12-18T14:57:23;13.57;;;10.70;;
73454;SDS011;61690;51.824;6.306;2022-12-18T14:59:51;14.13;;;11.30;;
73454;SDS011;61690;51.824;6.306;2022-12-18T15:02:23;15.20;;;11.20;;
73454;SDS011;61690;51.824;6.306;2022-12-18T15:05:04;14.10;;;11.83;;
73454;SDS011;61690;51.824;6.306;2022-12-18T15:07:40;13.80;;;11.13;;
73454;SDS011;61690;51.824;6.306;2022-12-18T15:10:24;14.25;;;11.15;;
73454;SDS011;61690;51.824;6.306;2022-12-18T15:20:32;13.35;;;11.00;;
73454;SDS011;61690;51.824;6.306;2022-12-18T15:23:24;13.43;;;10.95;;
73454;SDS011;61690;51.824;6.306;2022-12-18T15:25:59;16.52;;;11.57;;
73454;SDS011;61690;51.824;6.306;2022-12-18T15:28:34;15.02;;;11.25;;
73454;SDS011;61690;51.824;6.306;2022-12-18T15:33:35;12.87;;;10.30;;
73454;SDS011;61690;51.824;6.306;2022-12-18T15:36:04;14.10;;;11.15;;
73454;SDS011;61690;51.824;6.306;2022-12-18T15:38:33;13.35;;;10.75;;
73454;SDS011;61690;51.824;6.306;2022-12-18T15:40:59;14.13;;;10.80;;
73454;SDS011;61690;51.824;6.306;2022-12-18T15:43:25;12.87;;;10.73;;
73454;SDS011;61690;51.824;6.306;2022-12-18T15:45:58;12.40;;;10.85;;
73454;SDS011;61690;51.824;6.306;2022-12-18T15:48:28;13.95;;;11.10;;
73454;SDS011;61690;51.824;6.306;2022-12-18T15:50:54;13.57;;;10.90;;
73454;SDS011;61690;51.824;6.306;2022-12-18T15:53:22;13.82;;;10.95;;
73454;SDS011;61690;51.824;6.306;2022-12-18T15:55:48;13.05;;;10.73;;
73454;SDS011;61690;51.824;6.306;2022-12-18T15:58:32;13.52;;;10.30;;
73454;SDS011;61690;51.824;6.306;2022-12-18T16:00:58;13.27;;;10.73;;
73454;SDS011;61690;51.824;6.306;2022-12-18T16:03:25;12.85;;;10.48;;
73454;SDS011;61690;51.824;6.306;2022-12-18T16:05:50;13.53;;;10.93;;
73454;SDS011;61690;51.824;6.306;2022-12-18T16:08:15;13.97;;;10.33;;
73454;SDS011;61690;51.824;6.306;2022-12-18T16:10:41;12.33;;;10.10;;
73454;SDS011;61690;51.824;6.306;2022-12-18T16:13:09;14.37;;;10.47;;
73454;SDS011;61690;51.824;6.306;2022-12-18T16:15:36;12.80;;;10.43;;
73454;SDS011;61690;51.824;6.306;2022-12-18T16:18:01;13.93;;;10.70;;
73454;SDS011;61690;51.824;6.306;2022-12-18T16:20:26;11.77;;;9.37;;
73454;SDS011;61690;51.824;6.306;2022-12-18T16:22:54;12.85;;;10.23;;
73454;SDS011;61690;51.824;6.306;2022-12-18T16:25:21;12.20;;;9.70;;
73454;SDS011;61690;51.824;6.306;2022-12-18T16:27:48;12.20;;;9.70;;
73454;SDS011;61690;51.824;6.306;2022-12-18T16:30:17;13.80;;;10.27;;
73454;SDS011;61690;51.824;6.306;2022-12-18T16:32:45;12.98;;;9.82;;
73454;SDS011;61690;51.824;6.306;2022-12-18T16:35:11;12.75;;;10.02;;
73454;SDS011;61690;51.824;6.306;2022-12-18T16:37:37;13.95;;;10.00;;
73454;SDS011;61690;51.824;6.306;2022-12-18T16:40:04;12.43;;;10.30;;
73454;SDS011;61690;51.824;6.306;2022-12-18T16:42:30;12.88;;;9.77;;